This is the latest recevied weather packets stored in our database for station/object SR9NLI. If no packets are shown the sender has not sent any weather packets the latest 1 day(s).
| Time | Temp. | Humidity | Pressure | Rain* | Wind** | Luminosity | Snow |
|---|---|---|---|---|---|---|---|
| 1777986648 | 24.44° C | 100% | 950.4 hPa | - | 1.79 m/s, 214° | - | - |
| 1777986525 | 24.44° C | 100% | 950.4 hPa | - | 2.24 m/s, 197° | - | - |
| 1777986402 | 24.44° C | 100% | 950.3 hPa | - | 2.24 m/s, 194° | - | - |
| 1777986341 | 24.44° C | 100% | 950.4 hPa | - | 1.79 m/s, 194° | - | - |
| 1777986279 | 24.44° C | 100% | 950.3 hPa | - | 1.79 m/s, 203° | - | - |
| 1777986155 | 24.44° C | 100% | 950.4 hPa | - | 1.34 m/s, 216° | - | - |
| 1777986032 | 24.44° C | 100% | 950.1 hPa | - | 2.24 m/s, 194° | - | - |
| 1777985971 | 24.44° C | 100% | 950.3 hPa | - | 2.24 m/s, 185° | - | - |
| 1777985908 | 24.44° C | 100% | 950.5 hPa | - | 2.68 m/s, 181° | - | - |
| 1777985785 | 24.44° C | 100% | 950.4 hPa | - | 1.79 m/s, 191° | - | - |
| 1777985662 | 25° C | 100% | 950.5 hPa | - | 1.79 m/s, 196° | - | - |
| 1777985601 | 24.44° C | 100% | 950.5 hPa | - | 1.79 m/s, 192° | - | - |
| 1777985539 | 24.44° C | 100% | 950.3 hPa | - | 2.24 m/s, 190° | - | - |
| 1777985416 | 24.44° C | 100% | 950.2 hPa | - | 2.68 m/s, 191° | - | - |
| 1777985293 | 25° C | 100% | 950.4 hPa | - | 2.68 m/s, 193° | - | - |
| 1777985232 | 24.44° C | 100% | 950.3 hPa | - | 2.24 m/s, 191° | - | - |
| 1777985170 | 24.44° C | 100% | 950.5 hPa | - | 2.24 m/s, 187° | - | - |
| 1777985047 | 24.44° C | 100% | 950.6 hPa | - | 4.47 m/s, 168° | - | - |
| 1777984924 | 23.33° C | 100% | 950.4 hPa | - | 5.81 m/s, 166° | - | - |
| 1777984864 | 23.89° C | 100% | 950.3 hPa | - | 5.36 m/s, 165° | - | - |
| 1777984801 | 23.89° C | 100% | 950.6 hPa | - | 4.47 m/s, 167° | - | - |
| 1777984678 | 23.89° C | 100% | 950.4 hPa | - | 4.47 m/s, 167° | - | - |
| 1777984555 | 24.44° C | 100% | 950.5 hPa | - | 4.02 m/s, 166° | - | - |
| 1777984494 | 23.89° C | 100% | 950.5 hPa | - | 4.02 m/s, 167° | - | - |
| 1777984431 | 23.89° C | 100% | 950.5 hPa | - | 3.58 m/s, 168° | - | - |
* Rain since midnight (hover to see other rain measurements)
** Current wind speed in m/s (hover to see current wind gust speed)